EDTL

Lahr Airport

Germany
TAF EDTL 171400Z 1715/1724 02007KT CAVOK
Issued Valid From Valid To
Nov-17 @ 14:00 UTC
(8 hours ago)
Nov-17 @ 15:00 UTC
(7 hours ago)
Nov-18 @ 00:00 UTC
(in 2 hours)
Nov-17 @ 15:00 to Nov-18 @ 00:00
TAF EDTL 171400Z 1715/1724 02007KT CAVOK
Wind Visibility Clouds Conditions
20° at 7 knots 10,000+ meters
  • No significant clouds
TAF EDTL 171400Z 1715/1724 02007KT CAVOK
Issued Nov-17 @ 14:00 UTC
(8 hours ago)
Valid From Nov-17 @ 15:00 UTC
(7 hours ago)
Valid To Nov-18 @ 00:00 UTC
(in 2 hours)
Nov-17 @ 15:00 - Nov-18 @ 00:00
Wind Visibility
20° at 7 knots 10,000+ meters
Clouds
  • No significant clouds
Conditions